createdAt,value
2022-11-25T00:01:08.429Z,2.63
2022-11-25T00:03:36.456Z,3.53
2022-11-25T00:06:10.689Z,3.00
2022-11-25T00:11:08.710Z,3.60
2022-11-25T00:13:37.850Z,2.60
2022-11-25T00:16:07.307Z,3.35
2022-11-25T00:18:35.904Z,3.38
2022-11-25T00:21:08.112Z,3.15
2022-11-25T00:23:37.018Z,3.28
2022-11-25T00:26:13.978Z,3.05
2022-11-25T00:28:43.307Z,3.05
2022-11-25T00:31:14.355Z,3.33
2022-11-25T00:33:42.966Z,3.28
2022-11-25T00:36:16.761Z,3.42
2022-11-25T00:38:45.049Z,3.55
2022-11-25T00:41:32.384Z,3.33
2022-11-25T00:44:17.707Z,3.17
2022-11-25T00:46:45.628Z,3.80
2022-11-25T00:49:13.608Z,4.30
2022-11-25T00:51:41.577Z,4.10
2022-11-25T00:54:09.486Z,4.90
2022-11-25T00:56:38.748Z,5.28
2022-11-25T00:59:06.922Z,5.32
2022-11-25T01:01:35.154Z,5.25
2022-11-25T01:04:03.753Z,5.13
2022-11-25T01:06:32.011Z,4.28
2022-11-25T01:08:59.887Z,4.60
2022-11-25T01:11:27.970Z,4.25
2022-11-25T01:14:01.421Z,4.40
2022-11-25T01:16:30.593Z,4.68
2022-11-25T01:18:59.980Z,4.43
2022-11-25T01:21:30.261Z,4.88
2022-11-25T01:24:00.587Z,4.95
2022-11-25T01:26:29.195Z,5.90
2022-11-25T01:29:00.310Z,5.47
2022-11-25T01:31:31.374Z,4.82
2022-11-25T01:34:00.631Z,5.22
2022-11-25T01:36:28.729Z,6.10
2022-11-25T01:38:58.601Z,5.20
2022-11-25T01:41:28.023Z,5.55
2022-11-25T01:44:15.485Z,4.68
2022-11-25T01:46:56.002Z,5.68
2022-11-25T01:49:30.216Z,4.70
2022-11-25T01:52:03.890Z,4.63
2022-11-25T01:54:36.867Z,4.95
2022-11-25T01:57:09.791Z,4.40
2022-11-25T01:59:44.761Z,3.50
2022-11-25T02:02:13.301Z,4.03
2022-11-25T02:04:42.369Z,3.58
2022-11-25T02:07:16.006Z,2.60
2022-11-25T02:09:46.784Z,2.85
2022-11-25T02:12:17.618Z,2.70
2022-11-25T02:14:49.597Z,3.08
2022-11-25T02:17:17.693Z,2.50
2022-11-25T02:19:57.099Z,2.75
2022-11-25T02:22:33.239Z,3.00
2022-11-25T02:25:11.577Z,3.08
2022-11-25T02:27:39.471Z,3.72
2022-11-25T02:30:08.653Z,3.50
2022-11-25T02:32:36.587Z,2.70
2022-11-25T02:35:22.194Z,3.65
2022-11-25T02:37:50.091Z,3.55
2022-11-25T02:40:19.734Z,3.10
2022-11-25T02:42:49.665Z,3.35
2022-11-25T02:45:22.143Z,3.25
2022-11-25T02:47:50.042Z,3.42
2022-11-25T02:50:18.073Z,2.97
2022-11-25T02:52:46.084Z,2.67
2022-11-25T02:55:14.109Z,2.90
2022-11-25T02:57:43.390Z,2.85
2022-11-25T03:00:12.312Z,3.13
2022-11-25T03:02:40.420Z,2.95
2022-11-25T03:05:08.882Z,2.70
2022-11-25T03:07:36.951Z,3.33
2022-11-25T03:10:05.554Z,3.47
2022-11-25T03:12:33.507Z,2.92
2022-11-25T03:15:02.777Z,2.83
2022-11-25T03:17:30.662Z,3.47
2022-11-25T03:19:58.802Z,4.20
2022-11-25T03:22:27.239Z,2.83
2022-11-25T03:24:55.208Z,3.10
2022-11-25T03:27:23.208Z,3.03
2022-11-25T03:29:51.110Z,3.30
2022-11-25T03:32:20.342Z,3.35
2022-11-25T03:34:48.295Z,3.33
2022-11-25T03:37:16.235Z,2.63
2022-11-25T03:39:44.239Z,2.83
2022-11-25T03:42:12.188Z,3.47
2022-11-25T03:44:40.070Z,3.60
2022-11-25T03:47:08.416Z,3.42
2022-11-25T03:49:37.676Z,2.80
2022-11-25T03:52:05.958Z,3.47
2022-11-25T03:54:34.191Z,3.28
2022-11-25T03:57:02.329Z,2.67
2022-11-25T03:59:30.156Z,2.78
2022-11-25T04:01:58.202Z,2.72
2022-11-25T04:04:26.283Z,3.63
2022-11-25T04:06:55.593Z,2.90
2022-11-25T04:09:23.628Z,2.47
2022-11-25T04:12:09.232Z,2.63
2022-11-25T04:14:38.016Z,2.35
2022-11-25T04:17:06.169Z,2.55
2022-11-25T04:19:34.114Z,2.53
2022-11-25T04:22:03.411Z,2.40
2022-11-25T04:24:31.347Z,2.58
2022-11-25T04:26:59.219Z,2.83
2022-11-25T04:29:27.245Z,2.22
2022-11-25T04:31:55.108Z,2.78
2022-11-25T04:34:23.267Z,2.05
2022-11-25T04:36:51.153Z,2.40
2022-11-25T04:39:20.524Z,2.05
2022-11-25T04:41:48.469Z,2.10
2022-11-25T04:44:16.389Z,2.42
2022-11-25T04:46:44.778Z,3.25
2022-11-25T04:49:13.137Z,2.20
2022-11-25T04:51:40.983Z,2.00
2022-11-25T04:54:13.344Z,2.58
2022-11-25T04:56:45.418Z,1.63
2022-11-25T04:59:30.614Z,2.30
2022-11-25T05:01:58.564Z,2.10
2022-11-25T05:04:26.443Z,2.10
2022-11-25T05:06:54.343Z,1.50
2022-11-25T05:09:22.202Z,1.83
2022-11-25T05:11:51.528Z,1.92
2022-11-25T05:14:19.404Z,1.80
2022-11-25T05:16:47.392Z,1.90
2022-11-25T05:19:15.376Z,2.45
2022-11-25T05:21:43.356Z,1.77
2022-11-25T05:24:11.420Z,2.10
2022-11-25T05:26:39.300Z,2.30
2022-11-25T05:29:08.580Z,2.25
2022-11-25T05:31:36.423Z,1.70
2022-11-25T05:34:04.876Z,2.10
2022-11-25T05:36:32.828Z,2.08
2022-11-25T05:39:01.168Z,2.22
2022-11-25T05:41:29.158Z,2.25
2022-11-25T05:43:57.173Z,2.55
2022-11-25T05:46:26.435Z,2.13
2022-11-25T05:48:55.720Z,2.10
2022-11-25T05:51:24.853Z,1.52
2022-11-25T05:53:53.129Z,1.92
2022-11-25T05:56:21.048Z,1.50
2022-11-25T05:58:49.291Z,1.88
2022-11-25T06:01:18.205Z,1.33
2022-11-25T06:03:47.523Z,2.08
2022-11-25T06:06:15.458Z,1.05
2022-11-25T06:08:43.690Z,1.42
2022-11-25T06:11:14.000Z,1.73
2022-11-25T06:13:42.877Z,1.40
2022-11-25T06:16:12.746Z,1.63
2022-11-25T06:18:41.030Z,1.88
2022-11-25T06:21:11.687Z,2.05
2022-11-25T06:23:40.485Z,1.73
2022-11-25T06:26:10.854Z,1.88
2022-11-25T06:28:38.898Z,1.73
2022-11-25T06:31:08.838Z,1.95
2022-11-25T06:33:36.795Z,1.70
2022-11-25T06:36:06.139Z,1.45
2022-11-25T06:38:35.414Z,1.63
2022-11-25T06:41:04.655Z,1.92
2022-11-25T06:43:33.811Z,1.80
2022-11-25T06:46:05.995Z,1.52
2022-11-25T06:48:34.240Z,2.05
2022-11-25T06:51:04.611Z,1.90
2022-11-25T06:53:33.370Z,1.40
2022-11-25T06:56:12.615Z,2.00
2022-11-25T06:58:41.551Z,1.63
2022-11-25T07:01:13.544Z,1.85
2022-11-25T07:03:42.058Z,2.05
2022-11-25T07:06:10.619Z,1.90
2022-11-25T07:08:38.561Z,1.92
2022-11-25T07:11:11.393Z,2.08
2022-11-25T07:13:39.342Z,2.17
2022-11-25T07:16:08.721Z,1.63
2022-11-25T07:18:38.424Z,1.45
2022-11-25T07:21:08.196Z,2.58
2022-11-25T07:23:37.441Z,2.03
2022-11-25T07:26:07.564Z,1.70
2022-11-25T07:28:37.819Z,2.20
2022-11-25T07:31:23.155Z,2.13
2022-11-25T07:33:53.754Z,1.98
2022-11-25T07:36:21.998Z,2.22
2022-11-25T07:38:50.063Z,2.28
2022-11-25T07:41:19.492Z,2.03
2022-11-25T07:43:50.082Z,2.40
2022-11-25T07:46:26.499Z,2.10
2022-11-25T07:48:57.360Z,2.22
2022-11-25T07:51:26.999Z,2.03
2022-11-25T07:53:55.828Z,2.13
2022-11-25T07:56:24.367Z,1.95
2022-11-25T07:58:53.965Z,1.95
2022-11-25T08:01:22.090Z,2.30
2022-11-25T08:03:51.819Z,2.00
2022-11-25T08:06:21.909Z,2.20
2022-11-25T08:08:50.298Z,2.30
2022-11-25T08:11:20.231Z,2.70
2022-11-25T08:13:48.860Z,2.17
2022-11-25T08:16:20.661Z,2.53
2022-11-25T08:18:49.043Z,2.38
2022-11-25T08:21:18.165Z,2.58
2022-11-25T08:23:48.582Z,2.78
2022-11-25T08:26:18.839Z,2.60
2022-11-25T08:28:47.013Z,2.30
2022-11-25T08:31:18.400Z,2.55
2022-11-25T08:33:47.033Z,2.28
2022-11-25T08:36:15.589Z,3.13
2022-11-25T08:38:44.450Z,3.33
2022-11-25T08:41:13.855Z,2.85
2022-11-25T08:43:42.412Z,2.92
2022-11-25T08:46:12.119Z,2.70
2022-11-25T08:48:42.218Z,3.10
2022-11-25T08:51:12.402Z,2.60
2022-11-25T08:53:41.097Z,2.75
2022-11-25T08:56:09.696Z,2.40
2022-11-25T08:58:38.290Z,3.03
2022-11-25T09:01:07.957Z,3.45
2022-11-25T09:03:37.922Z,3.10
2022-11-25T09:06:08.298Z,3.58
2022-11-25T09:08:36.493Z,3.70
2022-11-25T09:11:04.939Z,2.92
2022-11-25T09:13:33.419Z,2.97
2022-11-25T09:16:02.254Z,3.15
2022-11-25T09:18:30.873Z,3.03
2022-11-25T09:20:59.858Z,3.00
2022-11-25T09:23:29.107Z,3.08
2022-11-25T09:25:58.652Z,2.72
2022-11-25T09:28:27.577Z,3.42
2022-11-25T09:30:56.365Z,3.22
2022-11-25T09:33:24.363Z,3.40
2022-11-25T09:35:52.244Z,2.55
2022-11-25T09:38:20.120Z,3.15
2022-11-25T09:40:55.369Z,3.17
2022-11-25T09:43:55.698Z,3.20
2022-11-25T09:46:44.770Z,3.33
2022-11-25T09:49:38.500Z,3.35
2022-11-25T09:52:15.881Z,3.47
2022-11-25T09:54:48.979Z,3.13
2022-11-25T09:57:27.045Z,4.10
2022-11-25T10:00:04.520Z,2.80
2022-11-25T10:02:39.947Z,3.58
2022-11-25T10:05:15.404Z,3.63
2022-11-25T10:07:47.809Z,3.28
2022-11-25T10:10:23.175Z,3.72
2022-11-25T10:12:54.340Z,3.03
2022-11-25T10:15:27.430Z,3.90
2022-11-25T10:17:59.294Z,3.22
2022-11-25T10:20:30.539Z,3.47
2022-11-25T10:23:02.917Z,3.78
2022-11-25T10:25:36.330Z,3.38
2022-11-25T10:28:13.873Z,4.15
2022-11-25T10:30:46.778Z,4.20
2022-11-25T10:33:18.829Z,3.47
2022-11-25T10:35:50.624Z,3.90
2022-11-25T10:38:25.286Z,3.85
2022-11-25T10:40:55.856Z,3.08
2022-11-25T10:43:30.299Z,3.78
2022-11-25T10:46:09.693Z,3.53
2022-11-25T10:48:49.759Z,3.72
2022-11-25T10:51:40.874Z,3.10
2022-11-25T10:54:28.067Z,3.63
2022-11-25T10:56:57.953Z,3.45
2022-11-25T10:59:32.924Z,3.90
2022-11-25T11:02:19.907Z,3.83
2022-11-25T11:04:57.854Z,3.30
2022-11-25T11:07:27.007Z,3.67
2022-11-25T11:09:55.525Z,3.97
2022-11-25T11:12:26.727Z,3.72
2022-11-25T11:15:16.610Z,3.35
2022-11-25T11:17:44.521Z,3.83
2022-11-25T11:20:24.752Z,4.15
2022-11-25T11:23:08.424Z,4.13
2022-11-25T11:25:38.412Z,3.70
2022-11-25T11:28:27.260Z,2.92
2022-11-25T11:30:59.670Z,3.30
2022-11-25T11:33:33.784Z,3.95
2022-11-25T11:38:39.390Z,3.80
2022-11-25T11:41:16.834Z,3.42
2022-11-25T11:44:09.552Z,3.00
2022-11-25T11:46:54.802Z,3.55
2022-11-25T11:49:48.920Z,3.25
2022-11-25T11:52:23.667Z,3.38
2022-11-25T11:54:54.960Z,3.25
2022-11-25T11:57:35.011Z,2.80
2022-11-25T12:00:06.920Z,2.55
2022-11-25T12:02:49.912Z,3.08
2022-11-25T12:05:22.080Z,3.22
2022-11-25T12:08:01.696Z,3.45
2022-11-25T12:10:34.795Z,3.28
2022-11-25T12:13:13.929Z,2.85
2022-11-25T12:15:48.133Z,2.72
2022-11-25T12:20:56.880Z,3.30
2022-11-25T12:23:30.340Z,3.38
2022-11-25T12:26:03.755Z,3.38
2022-11-25T12:28:37.853Z,3.00
2022-11-25T12:31:13.409Z,2.88
2022-11-25T12:33:50.912Z,2.70
2022-11-25T12:36:23.691Z,2.72
2022-11-25T12:38:57.294Z,3.15
2022-11-25T12:41:30.924Z,2.78
2022-11-25T12:44:05.258Z,3.13
2022-11-25T12:46:37.715Z,2.95
2022-11-25T12:49:14.058Z,2.67
2022-11-25T12:52:09.159Z,3.08
2022-11-25T12:55:05.622Z,2.70
2022-11-25T12:57:51.055Z,2.83
2022-11-25T13:03:55.680Z,2.60
2022-11-25T13:07:00.413Z,2.80
2022-11-25T13:09:46.075Z,2.08
2022-11-25T13:12:28.815Z,2.35
2022-11-25T13:15:31.581Z,2.70
2022-11-25T13:18:03.652Z,2.88
2022-11-25T13:20:50.347Z,2.72
2022-11-25T13:23:29.359Z,2.92
2022-11-25T13:26:32.346Z,2.55
2022-11-25T13:29:01.095Z,2.53
2022-11-25T13:31:33.906Z,2.85
2022-11-25T13:34:24.241Z,2.45
2022-11-25T13:36:53.755Z,2.45
2022-11-25T13:39:32.306Z,1.92
2022-11-25T13:42:05.729Z,2.10
2022-11-25T13:44:35.918Z,3.03
2022-11-25T13:47:24.097Z,2.08
2022-11-25T13:49:53.874Z,2.00
2022-11-25T13:52:33.947Z,2.70
2022-11-25T13:55:08.543Z,2.15
2022-11-25T13:57:39.265Z,2.53
2022-11-25T14:00:10.309Z,2.40
2022-11-25T14:02:45.297Z,2.75
2022-11-25T14:05:37.240Z,2.10
2022-11-25T14:08:16.990Z,2.55
2022-11-25T14:10:56.433Z,2.45
2022-11-25T14:13:51.215Z,2.38
2022-11-25T14:19:49.645Z,2.88
2022-11-25T14:22:19.288Z,2.17
2022-11-25T14:24:50.640Z,3.25
2022-11-25T14:27:25.792Z,2.55
2022-11-25T14:29:57.375Z,2.92
2022-11-25T14:32:35.373Z,2.70
2022-11-25T14:35:09.778Z,2.75
2022-11-25T14:37:42.948Z,2.15
2022-11-25T14:40:16.550Z,2.40
2022-11-25T14:42:50.088Z,3.13
2022-11-25T14:45:23.298Z,3.20
2022-11-25T14:47:51.349Z,2.60
2022-11-25T14:50:34.375Z,3.85
2022-11-25T14:53:07.298Z,2.35
2022-11-25T14:55:35.224Z,2.45
2022-11-25T14:58:04.622Z,2.80
2022-11-25T15:00:32.597Z,3.08
2022-11-25T15:03:02.461Z,2.85
2022-11-25T15:05:34.146Z,3.33
2022-11-25T15:08:04.247Z,2.55
2022-11-25T15:10:42.062Z,2.72
2022-11-25T15:13:31.116Z,2.53
2022-11-25T15:16:06.229Z,2.70
2022-11-25T15:18:34.997Z,2.75
2022-11-25T15:21:03.944Z,3.05
2022-11-25T15:23:34.851Z,3.10
2022-11-25T15:26:04.797Z,2.67
2022-11-25T15:28:39.154Z,3.28
2022-11-25T15:31:10.712Z,2.83
2022-11-25T15:33:39.612Z,3.03
2022-11-25T15:36:08.182Z,2.80
2022-11-25T15:38:41.062Z,2.53
2022-11-25T15:41:21.545Z,3.55
2022-11-25T15:43:55.055Z,3.33
2022-11-25T15:46:24.798Z,3.05
2022-11-25T15:48:56.587Z,2.85
2022-11-25T15:51:32.222Z,3.25
2022-11-25T15:54:05.775Z,3.58
2022-11-25T15:56:36.620Z,3.15
2022-11-25T15:59:05.884Z,3.22
2022-11-25T16:01:34.297Z,3.53
2022-11-25T16:04:18.743Z,3.47
2022-11-25T16:06:55.042Z,3.55
2022-11-25T16:09:25.506Z,3.38
2022-11-25T16:11:53.419Z,3.72
2022-11-25T16:14:27.901Z,3.40
2022-11-25T16:17:02.163Z,3.40
2022-11-25T16:19:37.841Z,4.53
2022-11-25T16:22:07.331Z,3.38
2022-11-25T16:24:43.499Z,3.75
2022-11-25T16:27:19.284Z,3.70
2022-11-25T16:29:54.264Z,3.78
2022-11-25T16:32:24.471Z,3.45
2022-11-25T16:34:52.404Z,4.30
2022-11-25T16:37:20.286Z,3.92
2022-11-25T16:39:48.125Z,4.22
2022-11-25T16:42:20.459Z,3.83
2022-11-25T16:44:51.764Z,2.90
2022-11-25T16:47:21.558Z,3.83
2022-11-25T16:49:50.075Z,4.40
2022-11-25T16:52:17.982Z,3.33
2022-11-25T16:54:47.465Z,3.78
2022-11-25T16:57:21.923Z,3.17
2022-11-25T16:59:58.737Z,4.38
2022-11-25T17:02:27.319Z,3.40
2022-11-25T17:04:55.447Z,3.42
2022-11-25T17:07:39.030Z,3.28
2022-11-25T17:10:08.901Z,5.00
2022-11-25T17:12:38.543Z,4.18
2022-11-25T17:15:14.368Z,3.78
2022-11-25T17:17:42.418Z,3.55
2022-11-25T17:20:16.884Z,3.85
2022-11-25T17:22:44.783Z,3.78
2022-11-25T17:25:13.560Z,4.10
2022-11-25T17:27:42.328Z,3.97
2022-11-25T17:30:18.711Z,4.68
2022-11-25T17:32:47.377Z,4.30
2022-11-25T17:35:19.783Z,3.65
2022-11-25T17:37:48.548Z,4.40
2022-11-25T17:40:17.118Z,4.13
2022-11-25T17:42:48.325Z,3.83
2022-11-25T17:45:19.756Z,4.25
2022-11-25T17:47:48.270Z,4.30
2022-11-25T17:50:18.564Z,4.32
2022-11-25T17:52:47.104Z,4.47
2022-11-25T17:55:17.182Z,5.00
2022-11-25T17:57:45.191Z,4.90
2022-11-25T18:00:15.907Z,4.35
2022-11-25T18:02:45.328Z,3.88
2022-11-25T18:05:16.715Z,4.05
2022-11-25T18:07:45.237Z,3.78
2022-11-25T18:10:14.451Z,4.22
2022-11-25T18:12:43.661Z,4.75
2022-11-25T18:15:16.761Z,5.15
2022-11-25T18:17:46.464Z,4.43
2022-11-25T18:20:19.827Z,5.35
2022-11-25T18:22:48.932Z,7.93
2022-11-25T18:25:18.579Z,8.68
2022-11-25T18:27:47.379Z,8.30
2022-11-25T18:30:20.354Z,6.68
2022-11-25T18:32:50.050Z,6.20
2022-11-25T18:35:20.626Z,5.75
2022-11-25T18:37:48.555Z,5.40
2022-11-25T18:40:16.904Z,5.20
2022-11-25T18:42:47.943Z,4.93
2022-11-25T18:45:18.525Z,5.38
2022-11-25T18:47:46.548Z,5.38
2022-11-25T18:50:18.651Z,5.20
2022-11-25T18:52:46.847Z,5.13
2022-11-25T18:55:16.541Z,5.55
2022-11-25T18:57:48.101Z,4.75
2022-11-25T19:00:35.470Z,5.32
2022-11-25T19:03:03.568Z,6.82
2022-11-25T19:05:34.233Z,7.32
2022-11-25T19:08:02.135Z,5.97
2022-11-25T19:10:33.465Z,5.85
2022-11-25T19:13:04.453Z,6.65
2022-11-25T19:15:33.724Z,7.05
2022-11-25T19:18:04.676Z,7.80
2022-11-25T19:20:34.263Z,7.70
2022-11-25T19:23:12.776Z,7.30
2022-11-25T19:25:40.773Z,7.13
2022-11-25T19:28:13.297Z,7.47
2022-11-25T19:30:41.292Z,7.15
2022-11-25T19:33:16.957Z,7.80
2022-11-25T19:35:46.167Z,7.05
2022-11-25T19:38:19.820Z,7.22
2022-11-25T19:40:47.905Z,7.18
2022-11-25T19:43:16.080Z,6.32
2022-11-25T19:45:45.444Z,6.15
2022-11-25T19:48:15.326Z,6.45
2022-11-25T19:50:44.800Z,6.18
2022-11-25T19:53:18.371Z,5.75
2022-11-25T19:55:46.959Z,5.93
2022-11-25T19:58:15.719Z,6.30
2022-11-25T20:00:45.428Z,6.43
2022-11-25T20:03:20.010Z,6.28
2022-11-25T20:05:48.983Z,5.75
2022-11-25T20:08:21.655Z,6.53
2022-11-25T20:10:50.002Z,6.03
2022-11-25T20:13:18.279Z,7.85
2022-11-25T20:15:47.161Z,8.27
2022-11-25T20:18:18.521Z,8.10
2022-11-25T20:20:48.614Z,8.25
2022-11-25T20:23:23.462Z,8.15
2022-11-25T20:25:51.845Z,8.20
2022-11-25T20:28:22.328Z,8.07
2022-11-25T20:30:50.774Z,7.78
2022-11-25T20:33:23.850Z,7.13
2022-11-25T20:35:54.208Z,7.03
2022-11-25T20:38:25.645Z,6.60
2022-11-25T20:40:57.891Z,5.57
2022-11-25T20:43:29.383Z,6.72
2022-11-25T20:45:58.550Z,6.43
2022-11-25T20:48:27.565Z,5.50
2022-11-25T20:50:55.800Z,5.50
2022-11-25T20:53:25.028Z,5.93
2022-11-25T20:55:52.887Z,5.43
2022-11-25T20:58:23.007Z,6.47
2022-11-25T21:00:57.077Z,5.95
2022-11-25T21:03:25.927Z,7.22
2022-11-25T21:05:55.479Z,6.93
2022-11-25T21:08:26.277Z,7.50
2022-11-25T21:10:56.641Z,6.45
2022-11-25T21:13:27.299Z,6.10
2022-11-25T21:15:56.871Z,6.95
2022-11-25T21:18:25.546Z,6.18
2022-11-25T21:20:56.596Z,5.88
2022-11-25T21:23:29.206Z,5.57
2022-11-25T21:26:04.039Z,6.45
2022-11-25T21:28:33.651Z,6.22
2022-11-25T21:31:03.080Z,5.47
2022-11-25T21:33:34.083Z,7.75
2022-11-25T21:36:03.564Z,7.10
2022-11-25T21:38:33.060Z,7.10
2022-11-25T21:41:00.981Z,7.50
2022-11-25T21:43:32.816Z,7.00
2022-11-25T21:46:02.601Z,7.53
2022-11-25T21:48:31.586Z,7.00
2022-11-25T21:50:59.873Z,7.50
2022-11-25T21:53:30.931Z,6.22
2022-11-25T21:56:03.374Z,7.47
2022-11-25T21:58:31.967Z,7.28
2022-11-25T22:01:02.493Z,7.40
2022-11-25T22:03:32.440Z,7.80
2022-11-25T22:06:00.410Z,8.52
2022-11-25T22:08:28.376Z,8.13
2022-11-25T22:10:57.024Z,8.63
2022-11-25T22:13:35.067Z,7.40
2022-11-25T22:16:03.239Z,6.38
2022-11-25T22:18:33.991Z,6.20
2022-11-25T22:21:02.864Z,7.50
2022-11-25T22:23:30.848Z,6.53
2022-11-25T22:25:59.575Z,6.72
2022-11-25T22:28:30.946Z,6.05
2022-11-25T22:31:03.693Z,6.05
2022-11-25T22:33:35.120Z,6.45
2022-11-25T22:36:03.419Z,6.32
2022-11-25T22:38:32.061Z,5.88
2022-11-25T22:41:05.412Z,6.60
2022-11-25T22:43:37.524Z,5.85
2022-11-25T22:46:05.884Z,6.40
2022-11-25T22:48:37.889Z,5.97
2022-11-25T22:51:07.009Z,6.38
2022-11-25T22:53:34.901Z,6.18
2022-11-25T22:56:02.955Z,7.05
2022-11-25T22:58:30.869Z,6.60
2022-11-25T23:01:00.441Z,6.07
2022-11-25T23:03:30.238Z,6.60
2022-11-25T23:05:59.024Z,6.53
2022-11-25T23:08:29.094Z,5.35
2022-11-25T23:10:57.523Z,6.82
2022-11-25T23:13:25.967Z,5.65
2022-11-25T23:15:55.549Z,6.60
2022-11-25T23:18:29.551Z,7.47
2022-11-25T23:20:58.945Z,6.57
2022-11-25T23:23:28.761Z,5.60
2022-11-25T23:25:57.795Z,6.82
2022-11-25T23:28:26.744Z,5.82
2022-11-25T23:30:56.753Z,7.05
2022-11-25T23:33:31.878Z,5.90
2022-11-25T23:36:04.757Z,5.75
2022-11-25T23:38:39.319Z,6.30
2022-11-25T23:41:07.495Z,6.82
2022-11-25T23:43:35.609Z,6.28
2022-11-25T23:46:03.844Z,6.88
2022-11-25T23:48:33.649Z,6.63
2022-11-25T23:51:01.997Z,6.80
2022-11-25T23:53:32.793Z,6.75
2022-11-25T23:56:00.984Z,6.47
2022-11-25T23:58:29.154Z,6.32
